sensor_id;sensor_type;location;lat;lon;timestamp;pressure;altitude;pressure_sealevel;temperature;humidity
50302;BME280;36550;50.472;19.744;2022-11-15T00:01:58;98434.31;;;5.19;89.17
50302;BME280;36550;50.472;19.744;2022-11-15T00:04:43;98429.05;;;5.13;89.03
50302;BME280;36550;50.472;19.744;2022-11-15T00:07:27;98423.49;;;5.05;89.08
50302;BME280;36550;50.472;19.744;2022-11-15T00:10:12;98420.80;;;4.92;88.95
50302;BME280;36550;50.472;19.744;2022-11-15T00:12:56;98421.98;;;4.78;88.83
50302;BME280;36550;50.472;19.744;2022-11-15T00:15:41;98423.22;;;4.72;88.88
50302;BME280;36550;50.472;19.744;2022-11-15T00:18:26;98413.50;;;4.70;88.97
50302;BME280;36550;50.472;19.744;2022-11-15T00:21:13;98413.43;;;4.63;88.87
50302;BME280;36550;50.472;19.744;2022-11-15T00:23:58;98410.83;;;4.52;88.81
50302;BME280;36550;50.472;19.744;2022-11-15T00:26:43;98400.24;;;4.43;88.97
50302;BME280;36550;50.472;19.744;2022-11-15T00:29:27;98407.59;;;4.39;89.12
50302;BME280;36550;50.472;19.744;2022-11-15T00:32:12;98409.16;;;4.44;89.36
50302;BME280;36550;50.472;19.744;2022-11-15T00:34:56;98400.92;;;4.41;89.27
50302;BME280;36550;50.472;19.744;2022-11-15T00:37:41;98400.31;;;4.50;89.79
50302;BME280;36550;50.472;19.744;2022-11-15T00:40:25;98397.53;;;4.51;89.76
50302;BME280;36550;50.472;19.744;2022-11-15T00:43:10;98394.14;;;4.51;89.64
50302;BME280;36550;50.472;19.744;2022-11-15T00:45:54;98391.91;;;4.48;89.50
50302;BME280;36550;50.472;19.744;2022-11-15T00:48:39;98392.59;;;4.46;89.40
50302;BME280;36550;50.472;19.744;2022-11-15T00:51:23;98385.66;;;4.42;89.24
50302;BME280;36550;50.472;19.744;2022-11-15T00:54:08;98389.05;;;4.42;89.29
50302;BME280;36550;50.472;19.744;2022-11-15T00:56:52;98383.59;;;4.37;89.17
50302;BME280;36550;50.472;19.744;2022-11-15T00:59:37;98378.83;;;4.30;89.14
50302;BME280;36550;50.472;19.744;2022-11-15T01:02:21;98381.05;;;4.22;89.11
50302;BME280;36550;50.472;19.744;2022-11-15T01:05:06;98386.13;;;4.20;89.12
50302;BME280;36550;50.472;19.744;2022-11-15T01:07:55;98380.77;;;4.21;89.18
50302;BME280;36550;50.472;19.744;2022-11-15T01:10:40;98377.52;;;4.19;89.10
50302;BME280;36550;50.472;19.744;2022-11-15T01:13:24;98377.84;;;4.20;89.14
50302;BME280;36550;50.472;19.744;2022-11-15T01:16:16;98373.50;;;4.17;89.03
50302;BME280;36550;50.472;19.744;2022-11-15T01:19:02;98366.57;;;4.13;89.10
50302;BME280;36550;50.472;19.744;2022-11-15T01:21:50;98367.08;;;4.13;89.17
50302;BME280;36550;50.472;19.744;2022-11-15T01:24:35;98368.11;;;4.08;88.98
50302;BME280;36550;50.472;19.744;2022-11-15T01:27:19;98365.25;;;4.02;88.82
50302;BME280;36550;50.472;19.744;2022-11-15T01:30:04;98356.09;;;4.07;88.92
50302;BME280;36550;50.472;19.744;2022-11-15T01:32:50;98353.83;;;4.08;88.74
50302;BME280;36550;50.472;19.744;2022-11-15T01:35:38;98349.69;;;4.13;88.75
50302;BME280;36550;50.472;19.744;2022-11-15T01:38:23;98350.13;;;4.17;88.57
50302;BME280;36550;50.472;19.744;2022-11-15T01:41:20;98347.34;;;4.18;88.62
50302;BME280;36550;50.472;19.744;2022-11-15T01:47:35;98339.99;;;4.22;88.90
50302;BME280;36550;50.472;19.744;2022-11-15T01:50:30;98330.54;;;4.25;89.04
50302;BME280;36550;50.472;19.744;2022-11-15T01:53:16;98335.34;;;4.17;88.62
50302;BME280;36550;50.472;19.744;2022-11-15T01:56:04;98333.38;;;4.09;88.39
50302;BME280;36550;50.472;19.744;2022-11-15T01:58:51;98326.05;;;4.08;88.45
50302;BME280;36550;50.472;19.744;2022-11-15T02:01:37;98315.63;;;4.12;88.48
50302;BME280;36550;50.472;19.744;2022-11-15T02:04:32;98322.34;;;4.17;88.44
50302;BME280;36550;50.472;19.744;2022-11-15T02:07:19;98321.12;;;4.13;88.09
50302;BME280;36550;50.472;19.744;2022-11-15T02:10:16;98311.09;;;4.10;87.89
50302;BME280;36550;50.472;19.744;2022-11-15T02:12:58;98305.60;;;4.09;88.09
50302;BME280;36550;50.472;19.744;2022-11-15T02:16:04;98311.97;;;3.96;87.62
50302;BME280;36550;50.472;19.744;2022-11-15T02:29:16;98291.29;;;3.51;87.33
50302;BME280;36550;50.472;19.744;2022-11-15T02:32:25;98292.65;;;3.47;87.41
50302;BME280;36550;50.472;19.744;2022-11-15T02:35:29;98290.38;;;3.48;87.54
50302;BME280;36550;50.472;19.744;2022-11-15T02:38:59;98289.55;;;3.47;87.49
50302;BME280;36550;50.472;19.744;2022-11-15T02:42:25;98284.75;;;3.44;87.38
50302;BME280;36550;50.472;19.744;2022-11-15T02:45:27;98281.50;;;3.42;87.55
50302;BME280;36550;50.472;19.744;2022-11-15T02:48:13;98283.23;;;3.35;87.48
50302;BME280;36550;50.472;19.744;2022-11-15T02:51:00;98273.98;;;3.22;87.12
50302;BME280;36550;50.472;19.744;2022-11-15T02:53:45;98264.91;;;3.07;86.78
50302;BME280;36550;50.472;19.744;2022-11-15T02:56:30;98261.36;;;2.93;86.67
50302;BME280;36550;50.472;19.744;2022-11-15T03:05:44;98262.55;;;2.53;86.12
50302;BME280;36550;50.472;19.744;2022-11-15T03:11:47;98249.66;;;2.29;85.63
50302;BME280;36550;50.472;19.744;2022-11-15T03:14:36;98250.79;;;2.27;85.81
50302;BME280;36550;50.472;19.744;2022-11-15T03:20:17;98252.05;;;2.12;85.92
50302;BME280;36550;50.472;19.744;2022-11-15T03:23:04;98243.86;;;2.04;86.09
50302;BME280;36550;50.472;19.744;2022-11-15T03:25:51;98234.58;;;1.91;86.21
50302;BME280;36550;50.472;19.744;2022-11-15T03:28:49;98234.49;;;1.80;86.26
50302;BME280;36550;50.472;19.744;2022-11-15T03:31:38;98230.48;;;1.73;86.39
50302;BME280;36550;50.472;19.744;2022-11-15T03:34:43;98225.97;;;1.71;86.36
50302;BME280;36550;50.472;19.744;2022-11-15T03:41:04;98215.25;;;1.79;86.57
50302;BME280;36550;50.472;19.744;2022-11-15T03:43:55;98211.55;;;1.77;86.66
50302;BME280;36550;50.472;19.744;2022-11-15T03:46:53;98206.53;;;1.80;86.91
50302;BME280;36550;50.472;19.744;2022-11-15T03:49:52;98206.66;;;1.82;87.07
50302;BME280;36550;50.472;19.744;2022-11-15T03:52:40;98201.81;;;1.83;87.06
50302;BME280;36550;50.472;19.744;2022-11-15T03:55:26;98197.60;;;1.82;87.04
50302;BME280;36550;50.472;19.744;2022-11-15T03:58:10;98193.27;;;1.79;86.84
50302;BME280;36550;50.472;19.744;2022-11-15T04:00:55;98189.05;;;1.78;86.72
50302;BME280;36550;50.472;19.744;2022-11-15T04:03:39;98184.91;;;1.72;86.33
50302;BME280;36550;50.472;19.744;2022-11-15T04:06:24;98182.98;;;1.70;86.21
50302;BME280;36550;50.472;19.744;2022-11-15T04:09:08;98178.11;;;1.71;86.16
50302;BME280;36550;50.472;19.744;2022-11-15T04:11:53;98181.03;;;1.72;86.22
50302;BME280;36550;50.472;19.744;2022-11-15T04:14:37;98173.44;;;1.71;86.30
50302;BME280;36550;50.472;19.744;2022-11-15T04:17:23;98170.39;;;1.67;86.32
50302;BME280;36550;50.472;19.744;2022-11-15T04:20:22;98170.73;;;1.64;86.52
50302;BME280;36550;50.472;19.744;2022-11-15T04:23:31;98166.72;;;1.62;86.69
50302;BME280;36550;50.472;19.744;2022-11-15T04:26:34;98162.08;;;1.53;86.68
50302;BME280;36550;50.472;19.744;2022-11-15T04:29:19;98161.62;;;1.49;86.72
50302;BME280;36550;50.472;19.744;2022-11-15T04:32:18;98161.45;;;1.51;86.67
50302;BME280;36550;50.472;19.744;2022-11-15T04:35:03;98160.45;;;1.56;86.76
50302;BME280;36550;50.472;19.744;2022-11-15T04:37:48;98156.41;;;1.58;86.68
50302;BME280;36550;50.472;19.744;2022-11-15T04:40:32;98153.32;;;1.58;86.61
50302;BME280;36550;50.472;19.744;2022-11-15T04:43:17;98152.98;;;1.57;86.59
50302;BME280;36550;50.472;19.744;2022-11-15T04:46:02;98143.14;;;1.57;86.73
50302;BME280;36550;50.472;19.744;2022-11-15T04:48:46;98146.05;;;1.58;86.79
50302;BME280;36550;50.472;19.744;2022-11-15T04:51:31;98139.59;;;1.58;86.91
50302;BME280;36550;50.472;19.744;2022-11-15T04:54:15;98136.05;;;1.54;86.81
50302;BME280;36550;50.472;19.744;2022-11-15T04:57:00;98135.89;;;1.52;86.62
50302;BME280;36550;50.472;19.744;2022-11-15T04:59:45;98138.14;;;1.55;86.59
50302;BME280;36550;50.472;19.744;2022-11-15T05:02:29;98138.43;;;1.60;86.55
50302;BME280;36550;50.472;19.744;2022-11-15T05:05:15;98136.59;;;1.65;86.62
50302;BME280;36550;50.472;19.744;2022-11-15T05:08:00;98134.01;;;1.65;86.36
50302;BME280;36550;50.472;19.744;2022-11-15T05:10:44;98135.84;;;1.60;86.20
50302;BME280;36550;50.472;19.744;2022-11-15T05:13:29;98132.17;;;1.54;86.21
50302;BME280;36550;50.472;19.744;2022-11-15T05:16:13;98126.87;;;1.48;86.21
50302;BME280;36550;50.472;19.744;2022-11-15T05:18:58;98126.91;;;1.44;86.37
50302;BME280;36550;50.472;19.744;2022-11-15T05:21:42;98125.16;;;1.40;86.33
50302;BME280;36550;50.472;19.744;2022-11-15T05:24:27;98120.15;;;1.39;86.23
50302;BME280;36550;50.472;19.744;2022-11-15T05:27:11;98118.02;;;1.42;86.36
50302;BME280;36550;50.472;19.744;2022-11-15T05:29:56;98125.62;;;1.44;86.33
50302;BME280;36550;50.472;19.744;2022-11-15T05:32:40;98118.19;;;1.45;86.31
50302;BME280;36550;50.472;19.744;2022-11-15T05:35:31;98117.98;;;1.46;86.36
50302;BME280;36550;50.472;19.744;2022-11-15T05:38:23;98120.27;;;1.45;86.47
50302;BME280;36550;50.472;19.744;2022-11-15T05:41:07;98122.69;;;1.47;86.59
50302;BME280;36550;50.472;19.744;2022-11-15T05:43:53;98120.58;;;1.46;86.58
50302;BME280;36550;50.472;19.744;2022-11-15T05:46:39;98123.69;;;1.42;86.55
50302;BME280;36550;50.472;19.744;2022-11-15T05:49:28;98123.06;;;1.40;86.62
50302;BME280;36550;50.472;19.744;2022-11-15T05:52:17;98122.41;;;1.42;86.64
50302;BME280;36550;50.472;19.744;2022-11-15T05:55:06;98122.70;;;1.43;86.36
50302;BME280;36550;50.472;19.744;2022-11-15T05:57:51;98116.89;;;1.45;86.30
50302;BME280;36550;50.472;19.744;2022-11-15T06:00:36;98117.52;;;1.47;86.44
50302;BME280;36550;50.472;19.744;2022-11-15T06:03:20;98124.25;;;1.52;86.70
50302;BME280;36550;50.472;19.744;2022-11-15T06:06:05;98118.91;;;1.53;86.70
50302;BME280;36550;50.472;19.744;2022-11-15T06:08:49;98125.37;;;1.53;86.66
50302;BME280;36550;50.472;19.744;2022-11-15T06:11:34;98118.28;;;1.51;86.67
50302;BME280;36550;50.472;19.744;2022-11-15T06:14:18;98126.50;;;1.55;86.70
50302;BME280;36550;50.472;19.744;2022-11-15T06:17:03;98117.39;;;1.63;86.99
50302;BME280;36550;50.472;19.744;2022-11-15T06:19:47;98116.86;;;1.68;86.83
50302;BME280;36550;50.472;19.744;2022-11-15T06:22:32;98119.06;;;1.75;86.66
50302;BME280;36550;50.472;19.744;2022-11-15T06:25:16;98120.64;;;1.80;86.50
50302;BME280;36550;50.472;19.744;2022-11-15T06:28:01;98118.17;;;1.87;86.42
50302;BME280;36550;50.472;19.744;2022-11-15T06:30:46;98121.47;;;1.96;86.48
50302;BME280;36550;50.472;19.744;2022-11-15T06:33:30;98124.16;;;2.02;86.55
50302;BME280;36550;50.472;19.744;2022-11-15T06:36:15;98123.62;;;2.07;86.71
50302;BME280;36550;50.472;19.744;2022-11-15T06:39:00;98122.77;;;2.10;86.69
50302;BME280;36550;50.472;19.744;2022-11-15T06:41:45;98126.31;;;2.14;86.59
50302;BME280;36550;50.472;19.744;2022-11-15T06:44:29;98127.66;;;2.09;86.30
50302;BME280;36550;50.472;19.744;2022-11-15T06:47:14;98122.77;;;2.10;86.31
50302;BME280;36550;50.472;19.744;2022-11-15T06:49:58;98121.81;;;2.11;86.27
50302;BME280;36550;50.472;19.744;2022-11-15T06:52:43;98117.59;;;2.10;86.05
50302;BME280;36550;50.472;19.744;2022-11-15T06:55:27;98120.80;;;2.17;86.06
50302;BME280;36550;50.472;19.744;2022-11-15T06:58:12;98121.98;;;2.25;86.12
50302;BME280;36550;50.472;19.744;2022-11-15T07:01:02;98120.92;;;2.34;86.14
50302;BME280;36550;50.472;19.744;2022-11-15T07:03:48;98116.91;;;2.46;86.31
50302;BME280;36550;50.472;19.744;2022-11-15T07:06:33;98113.41;;;2.54;86.26
50302;BME280;36550;50.472;19.744;2022-11-15T07:09:17;98115.30;;;2.60;86.24
50302;BME280;36550;50.472;19.744;2022-11-15T07:12:02;98112.77;;;2.67;86.31
50302;BME280;36550;50.472;19.744;2022-11-15T07:14:47;98116.13;;;2.72;86.43
50302;BME280;36550;50.472;19.744;2022-11-15T07:17:31;98113.42;;;2.80;86.70
50302;BME280;36550;50.472;19.744;2022-11-15T07:20:17;98110.06;;;2.90;86.82
50302;BME280;36550;50.472;19.744;2022-11-15T07:23:03;98107.12;;;2.93;86.66
50302;BME280;36550;50.472;19.744;2022-11-15T07:25:49;98112.06;;;2.99;86.55
50302;BME280;36550;50.472;19.744;2022-11-15T07:28:34;98106.13;;;3.05;86.37
50302;BME280;36550;50.472;19.744;2022-11-15T07:31:18;98102.18;;;3.09;86.21
50302;BME280;36550;50.472;19.744;2022-11-15T07:34:03;98102.38;;;3.18;86.24
50302;BME280;36550;50.472;19.744;2022-11-15T07:36:48;98103.24;;;3.25;86.18
50302;BME280;36550;50.472;19.744;2022-11-15T07:39:32;98101.02;;;3.33;86.23
50302;BME280;36550;50.472;19.744;2022-11-15T07:42:17;98097.52;;;3.41;86.41
50302;BME280;36550;50.472;19.744;2022-11-15T07:45:21;98091.25;;;3.46;86.46
50302;BME280;36550;50.472;19.744;2022-11-15T07:48:07;98086.92;;;3.53;86.57
50302;BME280;36550;50.472;19.744;2022-11-15T07:50:51;98086.41;;;3.64;86.84
50302;BME280;36550;50.472;19.744;2022-11-15T07:53:36;98090.30;;;3.75;87.06
50302;BME280;36550;50.472;19.744;2022-11-15T07:56:20;98092.77;;;3.83;87.04
50302;BME280;36550;50.472;19.744;2022-11-15T07:59:05;98095.42;;;3.90;86.84
50302;BME280;36550;50.472;19.744;2022-11-15T08:01:50;98092.66;;;3.98;86.72
50302;BME280;36550;50.472;19.744;2022-11-15T08:04:34;98094.44;;;4.09;86.71
50302;BME280;36550;50.472;19.744;2022-11-15T08:07:18;98097.48;;;4.19;86.67
50302;BME280;36550;50.472;19.744;2022-11-15T08:10:04;98099.55;;;4.30;86.82
50302;BME280;36550;50.472;19.744;2022-11-15T08:13:05;98095.92;;;4.42;87.02
50302;BME280;36550;50.472;19.744;2022-11-15T08:15:49;98090.49;;;4.54;87.26
50302;BME280;36550;50.472;19.744;2022-11-15T08:18:34;98096.12;;;4.65;87.33
50302;BME280;36550;50.472;19.744;2022-11-15T08:21:20;98094.95;;;4.74;87.50
50302;BME280;36550;50.472;19.744;2022-11-15T08:24:05;98101.20;;;4.86;87.61
50302;BME280;36550;50.472;19.744;2022-11-15T08:26:52;98092.83;;;4.97;87.59
50302;BME280;36550;50.472;19.744;2022-11-15T08:29:36;98086.07;;;5.10;87.55
50302;BME280;36550;50.472;19.744;2022-11-15T08:32:21;98084.50;;;5.22;87.56
50302;BME280;36550;50.472;19.744;2022-11-15T08:35:06;98082.70;;;5.36;87.69
50302;BME280;36550;50.472;19.744;2022-11-15T08:37:52;98084.32;;;5.50;87.84
50302;BME280;36550;50.472;19.744;2022-11-15T08:40:37;98087.94;;;5.63;88.12
50302;BME280;36550;50.472;19.744;2022-11-15T08:43:21;98083.42;;;5.74;88.30
50302;BME280;36550;50.472;19.744;2022-11-15T08:46:11;98076.30;;;5.85;88.40
50302;BME280;36550;50.472;19.744;2022-11-15T08:48:56;98083.13;;;6.00;88.41
50302;BME280;36550;50.472;19.744;2022-11-15T08:51:40;98078.20;;;6.14;88.39
50302;BME280;36550;50.472;19.744;2022-11-15T08:54:24;98072.75;;;6.29;88.40
50302;BME280;36550;50.472;19.744;2022-11-15T08:57:09;98079.81;;;6.44;88.25
50302;BME280;36550;50.472;19.744;2022-11-15T08:59:53;98069.36;;;6.58;88.19
50302;BME280;36550;50.472;19.744;2022-11-15T09:02:39;98068.58;;;6.73;88.21
50302;BME280;36550;50.472;19.744;2022-11-15T09:05:25;98063.28;;;6.86;88.28
50302;BME280;36550;50.472;19.744;2022-11-15T09:08:10;98065.47;;;6.96;88.46
50302;BME280;36550;50.472;19.744;2022-11-15T09:10:57;98063.28;;;7.09;88.39
50302;BME280;36550;50.472;19.744;2022-11-15T09:13:42;98053.54;;;7.23;88.22
50302;BME280;36550;50.472;19.744;2022-11-15T09:16:26;98053.16;;;7.35;88.01
50302;BME280;36550;50.472;19.744;2022-11-15T09:19:11;98045.73;;;7.48;88.05
50302;BME280;36550;50.472;19.744;2022-11-15T09:21:55;98043.42;;;7.58;87.97
50302;BME280;36550;50.472;19.744;2022-11-15T09:24:40;98043.54;;;7.70;88.03
50302;BME280;36550;50.472;19.744;2022-11-15T09:27:28;98037.91;;;7.82;88.00
50302;BME280;36550;50.472;19.744;2022-11-15T09:30:13;98035.16;;;7.96;87.87
50302;BME280;36550;50.472;19.744;2022-11-15T09:32:58;98042.44;;;8.12;87.83
50302;BME280;36550;50.472;19.744;2022-11-15T09:35:42;98032.86;;;8.24;87.70
50302;BME280;36550;50.472;19.744;2022-11-15T09:38:27;98031.66;;;8.39;87.72
50302;BME280;36550;50.472;19.744;2022-11-15T09:50:59;98016.42;;;8.84;87.64
50302;BME280;36550;50.472;19.744;2022-11-15T09:53:52;98008.46;;;9.00;87.52
50302;BME280;36550;50.472;19.744;2022-11-15T09:56:50;98003.70;;;9.09;87.36
50302;BME280;36550;50.472;19.744;2022-11-15T09:59:58;98000.14;;;9.24;87.45
50302;BME280;36550;50.472;19.744;2022-11-15T10:06:02;97993.75;;;9.41;87.02
50302;BME280;36550;50.472;19.744;2022-11-15T10:11:46;97986.10;;;9.52;86.82
50302;BME280;36550;50.472;19.744;2022-11-15T10:14:31;97988.22;;;9.64;86.96
50302;BME280;36550;50.472;19.744;2022-11-15T10:20:21;97977.72;;;9.88;87.03
50302;BME280;36550;50.472;19.744;2022-11-15T10:23:11;97969.59;;;10.01;87.00
50302;BME280;36550;50.472;19.744;2022-11-15T10:25:59;97964.83;;;10.12;87.04
50302;BME280;36550;50.472;19.744;2022-11-15T10:28:43;97964.75;;;10.21;86.99
50302;BME280;36550;50.472;19.744;2022-11-15T10:31:28;97962.79;;;10.29;86.85
50302;BME280;36550;50.472;19.744;2022-11-15T10:34:18;97955.09;;;10.36;86.82
50302;BME280;36550;50.472;19.744;2022-11-15T10:37:07;97956.38;;;10.48;86.77
50302;BME280;36550;50.472;19.744;2022-11-15T10:40:06;97953.42;;;10.59;86.52
50302;BME280;36550;50.472;19.744;2022-11-15T10:45:59;97943.50;;;10.78;85.92
50302;BME280;36550;50.472;19.744;2022-11-15T10:48:47;97938.34;;;10.83;85.76
50302;BME280;36550;50.472;19.744;2022-11-15T10:51:33;97939.19;;;10.86;85.91
50302;BME280;36550;50.472;19.744;2022-11-15T10:54:42;97930.32;;;10.90;85.47
50302;BME280;36550;50.472;19.744;2022-11-15T10:57:32;97927.75;;;10.95;85.32
50302;BME280;36550;50.472;19.744;2022-11-15T11:00:26;97931.02;;;11.02;85.43
50302;BME280;36550;50.472;19.744;2022-11-15T11:03:27;97925.30;;;11.05;85.24
50302;BME280;36550;50.472;19.744;2022-11-15T11:06:15;97929.33;;;11.10;85.32
50302;BME280;36550;50.472;19.744;2022-11-15T11:09:05;97924.39;;;11.14;85.31
50302;BME280;36550;50.472;19.744;2022-11-15T11:11:51;97914.20;;;11.17;85.27
50302;BME280;36550;50.472;19.744;2022-11-15T11:14:38;97915.77;;;11.18;85.20
50302;BME280;36550;50.472;19.744;2022-11-15T11:20:39;97912.05;;;11.14;84.76
50302;BME280;36550;50.472;19.744;2022-11-15T11:23:43;97913.59;;;11.13;84.79
50302;BME280;36550;50.472;19.744;2022-11-15T11:29:54;97901.14;;;11.06;84.57
50302;BME280;36550;50.472;19.744;2022-11-15T11:33:11;97900.11;;;11.07;84.44
50302;BME280;36550;50.472;19.744;2022-11-15T11:45:39;97889.66;;;11.29;84.62
50302;BME280;36550;50.472;19.744;2022-11-15T11:48:40;97880.78;;;11.32;84.20
50302;BME280;36550;50.472;19.744;2022-11-15T11:51:34;97879.25;;;11.36;84.05
50302;BME280;36550;50.472;19.744;2022-11-15T11:54:24;97873.23;;;11.39;83.66
50302;BME280;36550;50.472;19.744;2022-11-15T12:00:21;97870.90;;;11.40;83.31
50302;BME280;36550;50.472;19.744;2022-11-15T12:03:11;97868.27;;;11.40;81.86
50302;BME280;36550;50.472;19.744;2022-11-15T12:05:59;97864.13;;;11.46;82.49
50302;BME280;36550;50.472;19.744;2022-11-15T12:12:32;97846.35;;;11.53;81.94
50302;BME280;36550;50.472;19.744;2022-11-15T12:15:26;97839.85;;;11.59;81.57
50302;BME280;36550;50.472;19.744;2022-11-15T12:18:15;97842.50;;;11.61;81.64
50302;BME280;36550;50.472;19.744;2022-11-15T12:21:13;97838.05;;;11.62;81.64
50302;BME280;36550;50.472;19.744;2022-11-15T12:27:35;97829.11;;;11.63;81.45
50302;BME280;36550;50.472;19.744;2022-11-15T12:30:21;97826.25;;;11.64;81.27
50302;BME280;36550;50.472;19.744;2022-11-15T12:33:28;97821.30;;;11.68;81.04
50302;BME280;36550;50.472;19.744;2022-11-15T12:36:34;97814.77;;;11.70;81.04
50302;BME280;36550;50.472;19.744;2022-11-15T12:40:03;97818.98;;;11.74;80.95
50302;BME280;36550;50.472;19.744;2022-11-15T12:45:32;97810.60;;;11.74;80.48
50302;BME280;36550;50.472;19.744;2022-11-15T12:57:35;97817.19;;;11.77;79.55
50302;BME280;36550;50.472;19.744;2022-11-15T13:03:24;97807.27;;;11.84;78.79
50302;BME280;36550;50.472;19.744;2022-11-15T13:06:36;97802.03;;;11.87;78.97
50302;BME280;36550;50.472;19.744;2022-11-15T13:08:59;97799.16;;;11.88;79.14
50302;BME280;36550;50.472;19.744;2022-11-15T13:11:49;97801.88;;;11.93;78.51
50302;BME280;36550;50.472;19.744;2022-11-15T13:17:35;97795.38;;;12.01;78.14
50302;BME280;36550;50.472;19.744;2022-11-15T13:20:27;97799.86;;;12.03;78.01
50302;BME280;36550;50.472;19.744;2022-11-15T13:23:14;97797.27;;;12.06;77.90
50302;BME280;36550;50.472;19.744;2022-11-15T13:26:14;97795.19;;;12.10;78.06
50302;BME280;36550;50.472;19.744;2022-11-15T13:29:03;97792.08;;;12.13;77.95
50302;BME280;36550;50.472;19.744;2022-11-15T13:31:48;97793.70;;;12.20;77.86
50302;BME280;36550;50.472;19.744;2022-11-15T13:34:33;97792.97;;;12.27;77.87
50302;BME280;36550;50.472;19.744;2022-11-15T13:46:33;97771.00;;;12.43;77.49
50302;BME280;36550;50.472;19.744;2022-11-15T13:49:18;97769.92;;;12.39;77.36
50302;BME280;36550;50.472;19.744;2022-11-15T13:52:05;97764.11;;;12.35;77.49
50302;BME280;36550;50.472;19.744;2022-11-15T13:58:03;97769.23;;;12.19;77.16
50302;BME280;36550;50.472;19.744;2022-11-15T14:01:03;97766.00;;;12.09;77.17
50302;BME280;36550;50.472;19.744;2022-11-15T14:03:54;97758.84;;;12.05;77.34
50302;BME280;36550;50.472;19.744;2022-11-15T14:06:46;97759.61;;;12.00;77.20
50302;BME280;36550;50.472;19.744;2022-11-15T14:09:39;97754.29;;;11.92;77.25
50302;BME280;36550;50.472;19.744;2022-11-15T14:12:33;97757.09;;;11.88;77.50
50302;BME280;36550;50.472;19.744;2022-11-15T14:15:34;97750.45;;;11.81;77.41
50302;BME280;36550;50.472;19.744;2022-11-15T14:21:31;97748.16;;;11.62;77.29
50302;BME280;36550;50.472;19.744;2022-11-15T14:24:18;97744.92;;;11.52;77.30
50302;BME280;36550;50.472;19.744;2022-11-15T14:27:27;97748.73;;;11.42;77.25
50302;BME280;36550;50.472;19.744;2022-11-15T14:30:15;97741.78;;;11.31;77.17
50302;BME280;36550;50.472;19.744;2022-11-15T14:33:01;97746.14;;;11.23;77.21
50302;BME280;36550;50.472;19.744;2022-11-15T14:35:46;97747.91;;;11.17;77.38
50302;BME280;36550;50.472;19.744;2022-11-15T14:38:31;97748.18;;;11.15;77.62
50302;BME280;36550;50.472;19.744;2022-11-15T14:41:25;97740.23;;;11.10;77.66
50302;BME280;36550;50.472;19.744;2022-11-15T14:44:10;97737.30;;;11.07;77.79
50302;BME280;36550;50.472;19.744;2022-11-15T14:46:54;97730.64;;;10.99;77.75
50302;BME280;36550;50.472;19.744;2022-11-15T14:49:39;97732.67;;;10.94;77.82
50302;BME280;36550;50.472;19.744;2022-11-15T14:52:26;97739.67;;;10.86;77.73
50302;BME280;36550;50.472;19.744;2022-11-15T14:55:22;97736.42;;;10.79;77.72
50302;BME280;36550;50.472;19.744;2022-11-15T14:58:09;97728.47;;;10.74;77.77
50302;BME280;36550;50.472;19.744;2022-11-15T15:00:54;97723.44;;;10.70;77.94
50302;BME280;36550;50.472;19.744;2022-11-15T15:03:38;97721.05;;;10.68;77.99
50302;BME280;36550;50.472;19.744;2022-11-15T15:06:23;97714.96;;;10.65;78.03
50302;BME280;36550;50.472;19.744;2022-11-15T15:09:07;97709.92;;;10.61;78.04
50302;BME280;36550;50.472;19.744;2022-11-15T15:11:52;97714.31;;;10.55;78.02
50302;BME280;36550;50.472;19.744;2022-11-15T15:14:38;97719.19;;;10.49;78.06
50302;BME280;36550;50.472;19.744;2022-11-15T15:17:23;97717.20;;;10.37;77.93
50302;BME280;36550;50.472;19.744;2022-11-15T15:20:08;97709.45;;;10.30;77.96
50302;BME280;36550;50.472;19.744;2022-11-15T15:22:53;97716.16;;;10.24;77.99
50302;BME280;36550;50.472;19.744;2022-11-15T15:25:38;97717.65;;;10.17;77.91
50302;BME280;36550;50.472;19.744;2022-11-15T15:28:23;97714.63;;;10.08;77.89
50302;BME280;36550;50.472;19.744;2022-11-15T15:31:08;97706.64;;;10.00;77.92
50302;BME280;36550;50.472;19.744;2022-11-15T15:33:53;97707.63;;;9.97;78.14
50302;BME280;36550;50.472;19.744;2022-11-15T15:36:37;97704.92;;;9.92;78.19
50302;BME280;36550;50.472;19.744;2022-11-15T15:39:21;97703.11;;;9.78;77.90
50302;BME280;36550;50.472;19.744;2022-11-15T15:42:06;97696.07;;;9.64;77.96
50302;BME280;36550;50.472;19.744;2022-11-15T15:44:50;97696.70;;;9.54;78.10
50302;BME280;36550;50.472;19.744;2022-11-15T15:47:35;97695.78;;;9.49;78.32
50302;BME280;36550;50.472;19.744;2022-11-15T15:50:26;97696.31;;;9.48;78.49
50302;BME280;36550;50.472;19.744;2022-11-15T15:53:12;97688.19;;;9.47;78.62
50302;BME280;36550;50.472;19.744;2022-11-15T15:55:57;97691.85;;;9.49;78.69
50302;BME280;36550;50.472;19.744;2022-11-15T15:58:41;97687.98;;;9.51;78.83
50302;BME280;36550;50.472;19.744;2022-11-15T16:01:26;97684.84;;;9.52;79.05
50302;BME280;36550;50.472;19.744;2022-11-15T16:04:10;97675.45;;;9.53;79.25
50302;BME280;36550;50.472;19.744;2022-11-15T16:07:01;97674.98;;;9.56;79.41
50302;BME280;36550;50.472;19.744;2022-11-15T16:09:46;97674.73;;;9.58;79.40
50302;BME280;36550;50.472;19.744;2022-11-15T16:12:47;97673.16;;;9.57;79.39
50302;BME280;36550;50.472;19.744;2022-11-15T16:15:32;97670.50;;;9.54;79.33
50302;BME280;36550;50.472;19.744;2022-11-15T16:18:17;97669.75;;;9.56;79.42
50302;BME280;36550;50.472;19.744;2022-11-15T16:21:02;97672.59;;;9.55;79.21
50302;BME280;36550;50.472;19.744;2022-11-15T16:23:46;97669.13;;;9.52;79.16
50302;BME280;36550;50.472;19.744;2022-11-15T16:26:32;97674.83;;;9.49;79.19
50302;BME280;36550;50.472;19.744;2022-11-15T16:29:19;97672.50;;;9.50;79.42
50302;BME280;36550;50.472;19.744;2022-11-15T16:32:03;97669.88;;;9.50;79.55
50302;BME280;36550;50.472;19.744;2022-11-15T16:34:47;97667.79;;;9.49;79.66
50302;BME280;36550;50.472;19.744;2022-11-15T16:37:32;97664.28;;;9.43;79.56
50302;BME280;36550;50.472;19.744;2022-11-15T16:40:29;97666.81;;;9.38;79.58